Nearby METAR Reports

 

KCOS - Colorado Springs, Colorado, USA
Distance from station: S 6mi, 9km
Updated: Mon, 18-Dec-2017 12:54pm MST
Partly cloudy
Partly cloudy
 Wind from W
Wind: W 3 mph , 6 km/h
Temperature: 52°F , 11°C
Dew Point: 9°F , -13°C
Humidity: 17%
Barometer: 29.95 inHg , 1014.2 hPa
Clouds: Partly cloudy
Visibility: 10 miles , 16 km
Cloud details: Partly cloudy 25000 ft
2017/12/18 19:54 KCOS 181954Z 26003KT 10SM SCT250 11/M13 A2995 RMK AO2 SLP156 T01111133
KAFF - Usaf Academy/Cos, Colorado, USA
Distance from station: NW 7mi, 12km
Updated: Mon, 18-Dec-2017 12:58pm MST
Clear
Clear
 Wind from S
Wind: S 6 mph , 9 km/h
Temperature: 52°F , 11°C
Dew Point: 5°F , -15°C
Humidity: 15%
Barometer: 29.94 inHg , 1013.9 hPa
Clouds: Clear
Visibility: 10 miles , 16 km
2017/12/18 19:58 KAFF 181958Z AUTO 18005KT 10SM CLR 11/M15 A2994 RMK AO2 SLP157 T01141152
 
KFLY - Co Spngs Meadow, Colorado, USA
Distance from station: ENE 8mi, 13km
Updated: Mon, 18-Dec-2017 12:55pm MST
Clear
Clear
 Wind from calm
Wind: Calm
Temperature: 54°F , 12°C
Dew Point: 1°F , -17°C
Humidity: 12%
Barometer: 29.97 inHg , 1014.9 hPa
Clouds: Clear
Visibility: 10 miles , 16 km
2017/12/18 19:55 KFLY 181955Z AUTO 00000KT 10SM CLR 12/M17 A2997 RMK AO2 T01191171
KFCS - Fort Carson, Colorado, USA
Distance from station: S 17mi, 27km
Updated: Mon, 18-Dec-2017 12:58pm MST
Clear
Clear
 Wind from calm
Wind: Calm
Temperature: 54°F , 12°C
Dew Point: 5°F , -15°C
Humidity: 14%
Barometer: 29.93 inHg , 1013.5 hPa
Clouds: Clear
Visibility: 10 miles , 16 km
2017/12/18 19:58 KFCS 181958Z AUTO 00000KT 10SM CLR 12/M15 A2993 RMK AO2 SLP169 T01201147 $
 
KMNH - Monument/Elbert, Colorado, USA
Distance from station: N 22mi, 35km
Updated: Mon, 18-Dec-2017 1:12pm MST
Clear
Clear
 Wind from NNW
Wind: NNW 3 mph , 6 km/h
Temperature: 54°F , 12°C
Dew Point: 10°F , -12°C
Humidity: 18%
Barometer: 29.96 inHg , 1014.6 hPa
Clouds: Clear
Visibility: 10 miles , 16 km
2017/12/18 20:12 KMNH 182012Z AUTO 33003KT 10SM CLR 12/M12 A2996 RMK AO2
K1V6 - Canon City, Colorado, USA
Distance from station: SSW 39mi, 62km
Updated: Mon, 18-Dec-2017 1:10pm MST
Clear
Clear
 Wind from W
Wind: W 18 mph , 30 km/h, Gust: 22 mph , 35 km/h
Temperature: 63°F , 17°C
Dew Point: 10°F , -12°C
Humidity: 13%
Barometer: 29.91 inHg , 1012.9 hPa
Clouds: Clear
Visibility: 10 miles , 16 km
2017/12/18 20:10 K1V6 182010Z AUTO 27016G19KT 10SM CLR 17/M12 A2991 RMK AO2
 
KPUB - Pueblo, Colorado, USA
Distance from station: SSE 44mi, 71km
Updated: Mon, 18-Dec-2017 12:53pm MST
Clear
Clear
 Wind from SE
Wind: SE 3 mph , 6 km/h
Temperature: 55°F , 13°C
Dew Point: 14°F , -10°C
Humidity: 19%
Barometer: 29.91 inHg , 1012.9 hPa
Clouds: Clear
Visibility: 10 miles , 16 km
2017/12/18 19:53 KPUB 181953Z 13003KT 10SM CLR 13/M10 A2991 RMK AO2 SLP135 T01331100
KAPA - Denver/Arapahoe, Colorado, USA
Distance from station: N 47mi, 75km
Updated: Mon, 18-Dec-2017 12:53pm MST
Mostly cloudy
Mostly cloudy
 Wind from E
Wind: E 3 mph , 6 km/h
Temperature: 55°F , 13°C
Dew Point: 16°F , -9°C
Humidity: 21%
Barometer: 29.92 inHg , 1013.2 hPa
Clouds: Mostly cloudy
Visibility: 10 miles , 16 km
Cloud details: Few Clouds 10000 ft
Mostly cloudy 22000 ft
2017/12/18 19:53 KAPA 181953Z 08003KT 10SM FEW100 BKN220 13/M09 A2992 RMK AO2 SLP133 T01331094